Itaqui, Brazil
Current Conditions -  °F | °C
As of 10:00 AM on Wednesday 22 Oct 2014 (Local Time) from SARL Reporting Station
Clear Clear  
Wind Chill: 70°   Ceiling: Unl
Heat Index: 70°   Visibility: 6mi
Dew Point: 59°   Wind: 14mph
Humidity: 68%   Direction: 140°SE
Pressure: 30.09"   Gusts: NA
Location:  29.13°S, 56.55°W
Report Text: SARL 221200Z 14012KT CAVOK 21/15 Q1019
Loading
Personal Weather Stations






























Interactive Weather Map
Tropical Storm Tracking
New forecast layout! Learn more

10-Day Weather Forecast

Advertisements
Track Severe Weather on mobile